createdAt,value
2019-03-17T00:01:19.267Z,74.70
2019-03-17T00:03:46.699Z,73.90
2019-03-17T00:06:14.148Z,73.10
2019-03-17T00:08:41.605Z,72.40
2019-03-17T00:11:09.037Z,71.60
2019-03-17T00:13:36.476Z,70.70
2019-03-17T00:16:03.941Z,71.20
2019-03-17T00:18:31.371Z,70.50
2019-03-17T00:20:58.853Z,69.30
2019-03-17T00:23:26.291Z,69.70
2019-03-17T00:25:53.735Z,69.20
2019-03-17T00:28:21.168Z,69.00
2019-03-17T00:30:48.665Z,69.40
2019-03-17T00:33:16.121Z,69.20
2019-03-17T00:35:43.565Z,68.90
2019-03-17T00:38:11.018Z,68.70
2019-03-17T00:40:38.481Z,69.10
2019-03-17T00:43:06.131Z,69.00
2019-03-17T00:45:33.484Z,69.20
2019-03-17T00:48:00.946Z,69.30
2019-03-17T00:50:28.393Z,69.20
2019-03-17T00:52:55.821Z,69.50
2019-03-17T00:55:23.282Z,70.70
2019-03-17T00:57:50.713Z,69.60
2019-03-17T01:00:18.291Z,69.70
2019-03-17T01:02:45.731Z,69.40
2019-03-17T01:05:13.199Z,69.90
2019-03-17T01:07:40.640Z,70.50
2019-03-17T01:10:08.222Z,70.40
2019-03-17T01:12:35.628Z,70.10
2019-03-17T01:15:03.976Z,70.20
2019-03-17T01:17:31.434Z,70.10
2019-03-17T01:19:58.905Z,71.30
2019-03-17T01:22:26.390Z,71.20
2019-03-17T01:24:53.840Z,71.80
2019-03-17T01:27:21.339Z,71.90
2019-03-17T01:29:49.104Z,71.80
2019-03-17T01:32:16.642Z,72.00
2019-03-17T01:34:44.088Z,71.90
2019-03-17T01:37:11.690Z,71.60
2019-03-17T01:39:39.167Z,71.30
2019-03-17T01:42:06.612Z,71.70
2019-03-17T01:44:34.173Z,71.60
2019-03-17T01:47:01.603Z,71.70
2019-03-17T01:49:29.050Z,72.00
2019-03-17T01:51:56.507Z,71.80
2019-03-17T01:54:23.944Z,72.30
2019-03-17T01:56:51.375Z,73.20
2019-03-17T01:59:18.948Z,73.10
2019-03-17T02:01:46.387Z,72.90
2019-03-17T02:04:13.825Z,73.20
2019-03-17T02:06:41.276Z,73.60
2019-03-17T02:09:09.026Z,74.00
2019-03-17T02:11:36.453Z,74.30
2019-03-17T02:14:03.914Z,74.80
2019-03-17T02:16:31.352Z,75.30
2019-03-17T02:18:58.808Z,75.90
2019-03-17T02:21:26.264Z,76.20
2019-03-17T02:23:53.785Z,76.20
2019-03-17T02:26:21.218Z,76.50
2019-03-17T02:28:48.697Z,76.70
2019-03-17T02:31:16.133Z,76.60
2019-03-17T02:33:43.571Z,76.70
2019-03-17T02:36:11.017Z,76.80
2019-03-17T02:38:38.457Z,77.20
2019-03-17T02:41:06.322Z,77.10
2019-03-17T02:43:33.772Z,76.60
2019-03-17T02:46:03.036Z,76.70
2019-03-17T02:48:30.592Z,76.40
2019-03-17T02:50:58.028Z,76.60
2019-03-17T02:53:25.461Z,76.30
2019-03-17T02:55:52.904Z,78.20
2019-03-17T02:58:20.394Z,77.50
2019-03-17T03:00:48.020Z,78.00
2019-03-17T03:03:15.464Z,79.80
2019-03-17T03:05:54.647Z,80.20
2019-03-17T03:08:12.136Z,80.90
2019-03-17T03:10:39.456Z,83.00
2019-03-17T03:13:06.889Z,83.30
2019-03-17T03:15:34.306Z,83.60
2019-03-17T03:18:01.929Z,83.40
2019-03-17T03:20:29.349Z,83.80
2019-03-17T03:22:56.790Z,83.70
2019-03-17T03:25:24.266Z,84.60
2019-03-17T03:27:51.708Z,85.30
2019-03-17T03:30:19.129Z,85.90
2019-03-17T03:32:46.485Z,85.70
2019-03-17T03:35:13.949Z,86.40
2019-03-17T03:37:41.362Z,87.30
2019-03-17T03:40:09.048Z,86.60
2019-03-17T03:42:36.486Z,86.40
2019-03-17T03:45:04.689Z,86.60
2019-03-17T03:47:32.150Z,86.10
2019-03-17T03:49:59.579Z,86.20
2019-03-17T03:52:27.013Z,86.50
2019-03-17T03:54:54.463Z,86.60
2019-03-17T03:57:22.056Z,87.50
2019-03-17T03:59:49.537Z,87.50
2019-03-17T04:02:16.960Z,88.10
2019-03-17T04:04:44.514Z,89.10
2019-03-17T04:07:11.944Z,89.20
2019-03-17T04:09:39.372Z,89.60
2019-03-17T04:12:06.820Z,89.50
2019-03-17T04:14:34.265Z,90.10
2019-03-17T04:17:01.722Z,90.20
2019-03-17T04:19:29.184Z,90.30
2019-03-17T04:21:56.620Z,90.60
2019-03-17T04:24:24.067Z,91.10
2019-03-17T04:26:51.559Z,91.50
2019-03-17T04:29:19.201Z,91.50
2019-03-17T04:31:46.618Z,92.00
2019-03-17T04:34:14.080Z,92.00
2019-03-17T04:36:41.512Z,92.30
2019-03-17T04:39:08.940Z,92.70
2019-03-17T04:41:36.421Z,93.00
2019-03-17T04:44:03.852Z,93.80
2019-03-17T04:46:31.320Z,94.20
2019-03-17T04:48:58.841Z,93.80
2019-03-17T04:51:26.528Z,93.60
2019-03-17T04:53:53.943Z,93.70
2019-03-17T04:56:21.373Z,93.50
2019-03-17T04:58:49.001Z,93.90
2019-03-17T05:01:16.433Z,94.10
2019-03-17T05:03:43.873Z,93.80
2019-03-17T05:06:11.319Z,93.80
2019-03-17T05:08:38.735Z,93.70
2019-03-17T05:11:06.181Z,93.80
2019-03-17T05:13:33.596Z,93.30
2019-03-17T05:16:01.040Z,93.40
2019-03-17T05:18:28.510Z,93.10
2019-03-17T05:20:55.958Z,93.00
2019-03-17T05:23:23.400Z,92.90
2019-03-17T05:25:50.872Z,93.20
2019-03-17T05:28:18.457Z,92.80
2019-03-17T05:30:45.885Z,92.90
2019-03-17T05:33:13.340Z,92.50
2019-03-17T05:35:40.787Z,92.30
2019-03-17T05:38:08.224Z,92.60
2019-03-17T05:40:35.689Z,92.00
2019-03-17T05:43:03.124Z,92.70
2019-03-17T05:45:30.559Z,92.00
2019-03-17T05:47:58.026Z,92.10
2019-03-17T05:50:25.669Z,92.00
2019-03-17T05:52:53.097Z,91.90
2019-03-17T05:55:20.565Z,91.80
2019-03-17T05:57:48.104Z,91.30
2019-03-17T06:00:16.557Z,91.70
2019-03-17T06:02:44.005Z,91.40
2019-03-17T06:05:11.466Z,91.30
2019-03-17T06:07:38.888Z,90.80
2019-03-17T06:10:06.360Z,91.20
2019-03-17T06:12:33.797Z,91.00
2019-03-17T06:15:01.284Z,90.80
2019-03-17T06:17:28.732Z,90.90
2019-03-17T06:19:56.167Z,90.50
2019-03-17T06:22:23.604Z,90.60
2019-03-17T06:24:51.043Z,90.60
2019-03-17T06:27:18.632Z,90.50
2019-03-17T06:29:46.087Z,90.50
2019-03-17T06:32:13.507Z,90.70
2019-03-17T06:34:40.953Z,91.00
2019-03-17T06:37:08.400Z,90.30
2019-03-17T06:39:35.834Z,90.90
2019-03-17T06:42:03.255Z,91.00
2019-03-17T06:44:30.723Z,90.70
2019-03-17T06:46:58.252Z,90.60
2019-03-17T06:49:25.707Z,89.70
2019-03-17T06:51:53.151Z,90.50
2019-03-17T06:54:20.568Z,90.30
2019-03-17T06:56:48.002Z,89.20
2019-03-17T06:59:17.641Z,89.50
2019-03-17T07:01:44.708Z,89.90
2019-03-17T07:04:12.139Z,89.50
2019-03-17T07:06:39.591Z,88.40
2019-03-17T07:09:07.030Z,88.20
2019-03-17T07:11:34.456Z,87.80
2019-03-17T07:14:01.891Z,88.40
2019-03-17T07:16:29.333Z,89.20
2019-03-17T07:18:56.774Z,88.50
2019-03-17T07:21:24.163Z,87.10
2019-03-17T07:23:51.487Z,88.20
2019-03-17T07:26:19.035Z,88.20
2019-03-17T07:28:46.351Z,86.00
2019-03-17T07:31:13.790Z,86.40
2019-03-17T07:33:41.221Z,85.60
2019-03-17T07:36:08.677Z,85.50
2019-03-17T07:38:36.009Z,85.00
2019-03-17T07:41:03.467Z,86.00
2019-03-17T07:43:30.945Z,85.20
2019-03-17T07:45:58.373Z,85.10
2019-03-17T07:48:25.815Z,84.60
2019-03-17T07:50:53.270Z,84.40
2019-03-17T07:53:20.691Z,83.80
2019-03-17T07:55:48.349Z,83.80
2019-03-17T07:58:15.778Z,82.80
2019-03-17T08:00:43.349Z,81.30
2019-03-17T08:03:10.918Z,81.50
2019-03-17T08:05:38.566Z,82.90
2019-03-17T08:08:09.812Z,82.30
2019-03-17T08:10:35.249Z,82.00
2019-03-17T08:13:02.717Z,80.90
2019-03-17T08:15:30.205Z,79.90
2019-03-17T08:17:57.645Z,81.30
2019-03-17T08:20:25.106Z,80.50
2019-03-17T08:22:52.548Z,79.70
2019-03-17T08:25:19.988Z,80.20
2019-03-17T08:27:47.448Z,82.10
2019-03-17T08:30:14.979Z,80.90
2019-03-17T08:32:42.405Z,82.80
2019-03-17T08:35:10.146Z,81.40
2019-03-17T08:37:37.685Z,80.30
2019-03-17T08:40:07.216Z,80.60
2019-03-17T08:42:34.691Z,77.60
2019-03-17T08:45:02.137Z,77.70
2019-03-17T08:47:29.916Z,75.30
2019-03-17T08:49:57.633Z,77.40
2019-03-17T08:52:25.208Z,76.30
2019-03-17T08:54:52.668Z,74.10
2019-03-17T08:57:20.780Z,75.60
2019-03-17T08:59:48.309Z,76.70
2019-03-17T09:02:15.798Z,74.80
2019-03-17T09:04:43.223Z,73.00
2019-03-17T09:07:10.607Z,72.60
2019-03-17T09:09:37.989Z,73.10
2019-03-17T09:12:05.555Z,72.00
2019-03-17T09:14:33.252Z,72.40
2019-03-17T09:17:13.459Z,73.10
2019-03-17T09:19:30.757Z,72.10
2019-03-17T09:21:59.879Z,72.10
2019-03-17T09:24:27.885Z,71.90
2019-03-17T09:26:55.516Z,72.90
2019-03-17T09:29:22.993Z,73.60
2019-03-17T09:31:50.499Z,72.30
2019-03-17T09:34:18.266Z,73.20
2019-03-17T09:36:45.851Z,71.90
2019-03-17T09:39:13.623Z,71.30
2019-03-17T09:41:41.308Z,71.60
2019-03-17T09:44:09.011Z,73.20
2019-03-17T09:46:36.777Z,74.50
2019-03-17T09:49:06.618Z,74.60
2019-03-17T09:51:34.573Z,69.90
2019-03-17T09:54:02.108Z,70.90
2019-03-17T09:56:30.012Z,70.50
2019-03-17T09:58:57.442Z,72.10
2019-03-17T10:01:24.872Z,72.50
2019-03-17T10:03:52.970Z,73.50
2019-03-17T10:06:22.560Z,71.20
2019-03-17T10:08:59.284Z,69.40
2019-03-17T10:11:20.367Z,67.40
2019-03-17T10:13:48.459Z,68.40
2019-03-17T10:16:17.108Z,71.10
2019-03-17T10:18:45.135Z,66.80
2019-03-17T10:21:13.262Z,67.30
2019-03-17T10:23:41.432Z,63.90
2019-03-17T10:26:13.213Z,63.00
2019-03-17T10:28:42.004Z,62.90
2019-03-17T10:31:09.765Z,64.20
2019-03-17T10:33:39.054Z,63.10
2019-03-17T10:36:08.393Z,62.50
2019-03-17T10:38:36.021Z,61.80
2019-03-17T10:41:03.492Z,63.60
2019-03-17T10:43:30.948Z,63.70
2019-03-17T10:45:58.608Z,63.10
2019-03-17T10:48:26.051Z,62.80
2019-03-17T10:50:53.502Z,65.00
2019-03-17T10:53:20.937Z,63.30
2019-03-17T10:55:48.590Z,62.40
2019-03-17T10:58:16.007Z,64.10
2019-03-17T11:00:43.435Z,64.90
2019-03-17T11:03:10.889Z,63.20
2019-03-17T11:05:38.335Z,64.00
2019-03-17T11:08:05.752Z,65.00
2019-03-17T11:10:33.199Z,64.70
2019-03-17T11:13:00.628Z,65.00
2019-03-17T11:15:28.056Z,64.60
2019-03-17T11:17:55.492Z,64.40
2019-03-17T11:20:22.962Z,63.70
2019-03-17T11:22:50.378Z,64.00
2019-03-17T11:25:17.944Z,59.30
2019-03-17T11:27:45.451Z,59.40
2019-03-17T11:30:13.226Z,59.60
2019-03-17T11:32:40.660Z,58.20
2019-03-17T11:35:08.138Z,57.10
2019-03-17T11:37:35.750Z,56.10
2019-03-17T11:40:03.976Z,56.00
2019-03-17T11:42:31.287Z,55.90
2019-03-17T11:44:58.715Z,56.60
2019-03-17T11:47:26.152Z,54.90
2019-03-17T11:49:53.496Z,55.60
2019-03-17T11:52:20.944Z,56.20
2019-03-17T11:54:48.504Z,58.60
2019-03-17T11:57:15.939Z,58.00
2019-03-17T11:59:43.412Z,57.60
2019-03-17T12:02:10.976Z,58.70
2019-03-17T12:04:38.408Z,58.60
2019-03-17T12:07:05.845Z,57.70
2019-03-17T12:09:33.315Z,58.20
2019-03-17T12:12:00.791Z,58.20
2019-03-17T12:14:28.225Z,58.60
2019-03-17T12:16:55.677Z,57.60
2019-03-17T12:19:23.108Z,57.30
2019-03-17T12:21:50.576Z,62.70
2019-03-17T12:24:18.164Z,64.00
2019-03-17T12:26:45.646Z,66.70
2019-03-17T12:29:13.082Z,68.60
2019-03-17T12:31:40.528Z,69.20
2019-03-17T12:34:07.972Z,70.80
2019-03-17T12:36:35.422Z,69.30
2019-03-17T12:39:04.876Z,70.90
2019-03-17T12:41:32.302Z,69.40
2019-03-17T12:43:59.791Z,70.50
2019-03-17T12:46:27.248Z,70.00
2019-03-17T12:48:54.704Z,69.30
2019-03-17T12:51:22.077Z,68.20
2019-03-17T12:53:49.601Z,66.20
2019-03-17T12:56:17.076Z,67.90
2019-03-17T12:58:44.641Z,66.40
2019-03-17T13:01:12.159Z,69.20
2019-03-17T13:03:39.606Z,64.60
2019-03-17T13:06:07.050Z,64.10
2019-03-17T13:08:34.496Z,62.80
2019-03-17T13:11:01.966Z,62.80
2019-03-17T13:13:29.413Z,68.20
2019-03-17T13:15:56.853Z,74.30
2019-03-17T13:18:24.292Z,77.80
2019-03-17T13:20:51.766Z,79.70
2019-03-17T13:23:19.292Z,82.20
2019-03-17T13:25:46.816Z,79.00
2019-03-17T13:28:14.410Z,78.10
2019-03-17T13:30:41.841Z,78.20
2019-03-17T13:33:09.296Z,78.80
2019-03-17T13:35:36.770Z,77.40
2019-03-17T13:38:04.240Z,79.70
2019-03-17T13:40:31.812Z,80.00
2019-03-17T13:42:59.298Z,83.50
2019-03-17T13:45:26.762Z,82.30
2019-03-17T13:47:54.186Z,84.00
2019-03-17T13:50:21.671Z,84.80
2019-03-17T13:52:49.140Z,85.00
2019-03-17T13:55:16.674Z,88.00
2019-03-17T13:57:44.354Z,87.60
2019-03-17T14:00:13.328Z,87.50
2019-03-17T14:02:40.796Z,84.50
2019-03-17T14:05:08.514Z,85.00
2019-03-17T14:07:36.069Z,83.00
2019-03-17T14:10:13.907Z,83.40
2019-03-17T14:12:33.853Z,83.10
2019-03-17T14:15:01.308Z,81.50
2019-03-17T14:17:28.764Z,77.60
2019-03-17T14:19:56.440Z,78.20
2019-03-17T14:22:24.095Z,78.30
2019-03-17T14:24:51.546Z,72.70
2019-03-17T14:27:19.039Z,75.20
2019-03-17T14:29:46.396Z,76.00
2019-03-17T14:32:13.892Z,73.40
2019-03-17T14:34:41.459Z,75.00
2019-03-17T14:37:08.907Z,75.70
2019-03-17T14:39:36.349Z,73.60
2019-03-17T14:42:03.808Z,73.20
2019-03-17T14:44:31.257Z,74.30
2019-03-17T14:46:58.760Z,72.90
2019-03-17T14:49:26.147Z,71.70
2019-03-17T14:51:53.590Z,69.20
2019-03-17T14:54:21.351Z,68.10
2019-03-17T14:56:48.824Z,67.00
2019-03-17T14:59:16.277Z,69.40
2019-03-17T15:01:43.703Z,64.80
2019-03-17T15:04:11.176Z,65.70
2019-03-17T15:06:38.590Z,65.90
2019-03-17T15:09:07.032Z,65.60
2019-03-17T15:11:34.476Z,66.00
2019-03-17T15:14:02.164Z,68.70
2019-03-17T15:16:29.562Z,70.90
2019-03-17T15:18:57.244Z,72.00
2019-03-17T15:21:24.688Z,70.50
2019-03-17T15:23:52.133Z,67.80
2019-03-17T15:26:19.583Z,68.50
2019-03-17T15:28:47.011Z,65.90
2019-03-17T15:31:14.514Z,67.40
2019-03-17T15:33:41.973Z,70.60
2019-03-17T15:36:09.409Z,74.20
2019-03-17T15:38:36.865Z,76.70
2019-03-17T15:41:04.327Z,81.00
2019-03-17T15:43:31.766Z,81.40
2019-03-17T15:45:59.226Z,85.70
2019-03-17T15:48:26.749Z,85.20
2019-03-17T15:50:54.181Z,85.10
2019-03-17T15:53:21.625Z,85.40
2019-03-17T15:55:49.207Z,86.80
2019-03-17T15:58:16.557Z,86.50
2019-03-17T16:00:44.010Z,87.50
2019-03-17T16:03:11.571Z,86.40
2019-03-17T16:05:39.441Z,87.40
2019-03-17T16:08:06.860Z,87.20
2019-03-17T16:10:34.292Z,85.60
2019-03-17T16:13:01.725Z,86.80
2019-03-17T16:15:29.368Z,88.00
2019-03-17T16:17:56.796Z,87.50
2019-03-17T16:20:24.239Z,87.90
2019-03-17T16:22:51.683Z,90.00
2019-03-17T16:25:19.289Z,88.10
2019-03-17T16:27:47.127Z,90.40
2019-03-17T16:30:17.003Z,86.50
2019-03-17T16:32:44.410Z,87.80
2019-03-17T16:35:11.996Z,88.60
2019-03-17T16:37:39.476Z,86.50
2019-03-17T16:40:08.660Z,86.90
2019-03-17T16:42:36.199Z,88.20
2019-03-17T16:45:04.901Z,86.90
2019-03-17T16:47:32.348Z,85.00
2019-03-17T16:49:59.893Z,83.10
2019-03-17T16:52:27.350Z,84.60
2019-03-17T16:54:54.785Z,84.90
2019-03-17T16:57:22.378Z,85.80
2019-03-17T16:59:49.820Z,84.50
2019-03-17T17:02:17.260Z,81.40
2019-03-17T17:04:44.705Z,82.40
2019-03-17T17:07:12.140Z,83.10
2019-03-17T17:09:39.591Z,81.90
2019-03-17T17:12:07.045Z,81.80
2019-03-17T17:14:34.485Z,83.60
2019-03-17T17:17:01.957Z,82.60
2019-03-17T17:19:29.481Z,82.50
2019-03-17T17:21:58.697Z,82.90
2019-03-17T17:24:26.205Z,83.20
2019-03-17T17:26:53.673Z,82.60
2019-03-17T17:29:21.117Z,83.90
2019-03-17T17:31:48.582Z,83.00
2019-03-17T17:34:16.077Z,83.40
2019-03-17T17:36:43.507Z,83.90
2019-03-17T17:39:10.960Z,82.40
2019-03-17T17:41:38.385Z,84.70
2019-03-17T17:44:05.816Z,83.60
2019-03-17T17:46:33.256Z,85.70
2019-03-17T17:49:00.746Z,85.20
2019-03-17T17:51:28.320Z,85.40
2019-03-17T17:53:55.941Z,82.70
2019-03-17T17:56:23.424Z,83.60
2019-03-17T17:58:51.036Z,83.20
2019-03-17T18:01:18.737Z,81.20
2019-03-17T18:03:51.598Z,82.50
2019-03-17T18:06:15.869Z,80.60
2019-03-17T18:08:43.439Z,80.00
2019-03-17T18:11:11.106Z,81.20
2019-03-17T18:13:38.550Z,80.00
2019-03-17T18:16:05.995Z,80.10
2019-03-17T18:18:33.453Z,82.00
2019-03-17T18:21:00.854Z,81.80
2019-03-17T18:23:28.307Z,81.50
2019-03-17T18:25:55.768Z,79.70
2019-03-17T18:28:23.212Z,78.70
2019-03-17T18:30:50.656Z,80.70
2019-03-17T18:33:18.198Z,79.20
2019-03-17T18:35:45.597Z,79.10
2019-03-17T18:38:13.026Z,79.40
2019-03-17T18:40:42.347Z,79.00
2019-03-17T18:43:09.697Z,79.30
2019-03-17T18:45:37.112Z,80.70
2019-03-17T18:48:04.599Z,77.80
2019-03-17T18:50:32.012Z,78.60
2019-03-17T18:52:59.461Z,77.80
2019-03-17T18:55:26.894Z,79.30
2019-03-17T18:57:54.338Z,77.80
2019-03-17T19:00:21.818Z,76.30
2019-03-17T19:02:49.236Z,76.20
2019-03-17T19:05:19.514Z,76.50
2019-03-17T19:07:46.024Z,76.50
2019-03-17T19:10:13.786Z,76.50
2019-03-17T19:12:45.881Z,77.50
2019-03-17T19:15:11.747Z,76.90
2019-03-17T19:17:39.278Z,76.50
2019-03-17T19:20:07.811Z,75.80
2019-03-17T19:22:35.248Z,77.80
2019-03-17T19:25:02.910Z,76.20
2019-03-17T19:27:30.852Z,77.40
2019-03-17T19:29:58.208Z,78.60
2019-03-17T19:32:25.645Z,80.90
2019-03-17T19:34:53.228Z,81.70
2019-03-17T19:37:20.662Z,80.50
2019-03-17T19:39:48.215Z,82.50
2019-03-17T19:42:15.687Z,83.10
2019-03-17T19:44:43.116Z,83.20
2019-03-17T19:47:10.573Z,83.90
2019-03-17T19:49:38.019Z,85.90
2019-03-17T19:52:05.504Z,86.80
2019-03-17T19:54:32.954Z,87.30
2019-03-17T19:57:00.514Z,88.10
2019-03-17T19:59:27.964Z,87.70
2019-03-17T20:01:55.417Z,87.40
2019-03-17T20:04:30.488Z,88.70
2019-03-17T20:06:52.164Z,88.00
2019-03-17T20:09:19.584Z,87.80
2019-03-17T20:11:47.001Z,88.60
2019-03-17T20:14:14.579Z,88.50
2019-03-17T20:16:41.995Z,89.40
2019-03-17T20:19:09.431Z,89.70
2019-03-17T20:21:36.880Z,90.10
2019-03-17T20:24:04.309Z,90.40
2019-03-17T20:26:31.810Z,90.10
2019-03-17T20:28:59.292Z,90.50
2019-03-17T20:31:26.717Z,90.60
2019-03-17T20:33:54.162Z,90.80
2019-03-17T20:36:21.906Z,91.10
2019-03-17T20:38:49.356Z,91.00
2019-03-17T20:41:16.905Z,91.20
2019-03-17T20:43:44.352Z,91.00
2019-03-17T20:46:11.793Z,91.00
2019-03-17T20:48:39.496Z,91.20
2019-03-17T20:51:06.863Z,90.80
2019-03-17T20:53:34.304Z,90.70
2019-03-17T20:56:01.957Z,90.70
2019-03-17T20:58:29.346Z,90.60
2019-03-17T21:00:56.909Z,91.00
2019-03-17T21:03:24.352Z,91.30
2019-03-17T21:05:51.811Z,91.10
2019-03-17T21:08:19.309Z,91.00
2019-03-17T21:10:49.903Z,91.30
2019-03-17T21:13:16.501Z,91.40
2019-03-17T21:15:43.940Z,91.50
2019-03-17T21:18:11.417Z,91.00
2019-03-17T21:20:39.034Z,91.40
2019-03-17T21:23:07.151Z,91.40
2019-03-17T21:25:34.940Z,91.30
2019-03-17T21:28:02.791Z,91.10
2019-03-17T21:30:30.293Z,91.60
2019-03-17T21:32:57.762Z,91.40
2019-03-17T21:35:25.204Z,91.30
2019-03-17T21:37:52.688Z,91.30
2019-03-17T21:40:20.168Z,91.20
2019-03-17T21:42:47.701Z,91.40
2019-03-17T21:45:15.138Z,91.60
2019-03-17T21:47:42.565Z,91.50
2019-03-17T21:50:12.098Z,91.40
2019-03-17T21:52:39.417Z,91.60
2019-03-17T21:55:07.060Z,91.50
2019-03-17T21:57:34.507Z,91.50
2019-03-17T22:00:01.940Z,91.90
2019-03-17T22:02:29.417Z,91.40
2019-03-17T22:04:56.847Z,91.90
2019-03-17T22:07:24.283Z,91.80
2019-03-17T22:09:51.747Z,91.70
2019-03-17T22:12:19.359Z,91.90
2019-03-17T22:14:46.789Z,91.90
2019-03-17T22:17:14.243Z,91.80
2019-03-17T22:19:41.700Z,91.90
2019-03-17T22:22:09.214Z,91.80
2019-03-17T22:24:36.593Z,92.00
2019-03-17T22:27:04.042Z,92.00
2019-03-17T22:29:31.553Z,91.90
2019-03-17T22:31:59.134Z,91.90
2019-03-17T22:34:26.576Z,92.10
2019-03-17T22:36:54.025Z,92.20
2019-03-17T22:39:22.962Z,91.90
2019-03-17T22:41:50.475Z,91.90
2019-03-17T22:44:24.107Z,91.70
2019-03-17T22:46:47.152Z,91.80
2019-03-17T22:49:14.610Z,91.70
2019-03-17T22:51:42.063Z,91.60
2019-03-17T22:54:09.498Z,91.70
2019-03-17T22:56:36.932Z,91.90
2019-03-17T22:59:04.391Z,92.00
2019-03-17T23:01:31.811Z,91.60
2019-03-17T23:03:59.255Z,91.70
2019-03-17T23:06:26.786Z,91.60
2019-03-17T23:08:54.166Z,91.80
2019-03-17T23:11:21.575Z,91.60
2019-03-17T23:13:49.102Z,91.90
2019-03-17T23:16:16.536Z,91.80
2019-03-17T23:18:43.971Z,91.90
2019-03-17T23:21:11.418Z,91.90
2019-03-17T23:23:39.555Z,91.90
2019-03-17T23:26:07.145Z,91.90
2019-03-17T23:28:34.568Z,91.90
2019-03-17T23:31:02.171Z,91.90
2019-03-17T23:33:29.605Z,91.80
2019-03-17T23:35:57.087Z,91.90
2019-03-17T23:38:24.555Z,91.70
2019-03-17T23:40:51.998Z,91.90
2019-03-17T23:43:19.556Z,91.80
2019-03-17T23:45:46.988Z,91.70
2019-03-17T23:48:14.423Z,91.80
2019-03-17T23:50:41.873Z,91.60
2019-03-17T23:53:09.297Z,91.50
2019-03-17T23:55:36.729Z,91.60
2019-03-17T23:58:04.198Z,91.30
